Time;durP1;ratioP1;P1;durP2;ratioP2;P2;SDS_P1;SDS_P2;PMS_P1;PMS_P2;Temp;Humidity;BMP_temperature;BMP_pressure;BME280_temperature;BME280_humidity;BME280_pressure;Samples;Min_cycle;Max_cycle;Signal;HPM_P1;HPM_P2
2023/08/14 00:02:01;;;;;;;5.10;2.90;;;;;;;29.20;37.55;101306.87;103914;1284;61721;-83
2023/08/14 00:04:27;;;;;;;4.20;2.70;;;;;;;29.19;37.61;101310.70;103578;1290;62279;-83
2023/08/14 00:06:53;;;;;;;4.60;2.90;;;;;;;29.20;37.83;101311.05;103842;1290;61481;-83
2023/08/14 00:09:19;;;;;;;4.00;2.80;;;;;;;29.19;37.66;101310.39;103984;1285;62349;-82
2023/08/14 00:11:44;;;;;;;3.80;2.80;;;;;;;29.19;37.58;101311.28;103884;1285;61390;-83
2023/08/14 00:14:10;;;;;;;3.90;3.00;;;;;;;29.19;37.57;101315.83;104045;1284;62575;-83
2023/08/14 00:16:35;;;;;;;4.30;2.80;;;;;;;29.19;37.56;101313.11;103845;1284;61709;-83
2023/08/14 00:19:01;;;;;;;4.30;2.90;;;;;;;29.19;37.69;101309.11;103886;1288;63794;-83
2023/08/14 00:21:26;;;;;;;3.90;2.90;;;;;;;29.19;37.63;101310.59;103936;1289;61369;-83
2023/08/14 00:23:52;;;;;;;4.30;2.90;;;;;;;29.19;37.48;101310.42;103898;1285;62104;-83
2023/08/14 00:26:17;;;;;;;4.20;3.00;;;;;;;29.19;37.72;101310.59;104093;1289;61376;-83
2023/08/14 00:28:43;;;;;;;4.10;3.10;;;;;;;29.18;37.81;101307.77;103935;1284;61392;-83
2023/08/14 00:31:09;;;;;;;3.90;2.70;;;;;;;29.18;37.59;101312.28;104019;1285;63875;-82
2023/08/14 00:33:34;;;;;;;4.20;2.70;;;;;;;29.18;37.53;101309.23;103967;1289;61466;-82
2023/08/14 00:36:00;;;;;;;4.60;3.10;;;;;;;29.18;37.58;101308.85;103979;1285;62533;-83
2023/08/14 00:38:25;;;;;;;4.50;2.80;;;;;;;29.17;37.63;101310.00;103911;1288;61301;-83
2023/08/14 00:40:52;;;;;;;4.70;3.10;;;;;;;29.18;37.65;101309.80;103841;1285;61256;-83
2023/08/14 00:43:21;;;;;;;4.30;2.70;;;;;;;29.18;37.59;101310.17;103910;1290;63795;-83
2023/08/14 00:45:48;;;;;;;4.70;3.10;;;;;;;29.17;37.55;101309.45;103942;1284;66544;-83
2023/08/14 00:48:14;;;;;;;4.20;2.90;;;;;;;29.18;37.68;101313.06;103814;1284;61283;-83
2023/08/14 00:50:39;;;;;;;4.10;3.00;;;;;;;29.18;37.62;101313.78;103866;1284;61314;-83
2023/08/14 00:53:05;;;;;;;3.90;2.90;;;;;;;29.18;37.70;101312.86;103788;1290;61445;-83
2023/08/14 00:55:30;;;;;;;5.30;2.90;;;;;;;29.17;37.81;101311.09;103866;1285;61397;-82
2023/08/14 00:57:58;;;;;;;4.10;3.00;;;;;;;29.17;37.62;101309.86;103768;1285;61387;-83
2023/08/14 01:00:23;;;;;;;4.40;2.90;;;;;;;29.17;37.85;101306.98;104062;1284;61408;-83
2023/08/14 01:02:49;;;;;;;5.00;3.20;;;;;;;29.17;37.65;101304.42;103928;1286;61630;-83
2023/08/14 01:05:16;;;;;;;4.30;2.90;;;;;;;29.17;37.54;101305.34;103844;1285;61420;-83
2023/08/14 01:07:41;;;;;;;3.80;2.80;;;;;;;29.17;37.61;101307.14;103783;1290;65499;-82
2023/08/14 01:10:07;;;;;;;4.30;2.80;;;;;;;29.17;37.63;101303.71;103907;1285;61403;-82
2023/08/14 01:13:04;;;;;;;4.20;3.00;;;;;;;29.17;37.58;101300.10;103962;1285;61312;-83
2023/08/14 01:15:32;;;;;;;4.20;2.80;;;;;;;29.16;37.77;101299.85;103991;1288;63820;-82
2023/08/14 01:17:59;;;;;;;4.50;2.80;;;;;;;29.16;37.68;101298.96;103718;1285;65667;-83
2023/08/14 01:20:26;;;;;;;4.30;2.90;;;;;;;29.16;37.64;101301.66;103814;1286;61414;-83
2023/08/14 01:23:10;;;;;;;4.50;3.00;;;;;;;29.15;37.77;101297.88;103890;1287;61352;-82
2023/08/14 01:25:37;;;;;;;3.90;2.60;;;;;;;29.14;37.64;101298.35;103913;1289;63903;-83
2023/08/14 01:28:03;;;;;;;3.90;2.80;;;;;;;29.15;37.63;101301.55;103868;1289;65650;-83
2023/08/14 01:30:29;;;;;;;4.40;3.00;;;;;;;29.15;37.58;101302.84;103928;1284;61953;-82
2023/08/14 01:32:54;;;;;;;3.70;2.80;;;;;;;29.15;37.73;101305.38;103795;1285;61465;-83
2023/08/14 01:35:23;;;;;;;4.60;3.00;;;;;;;29.15;37.79;101301.58;103795;1285;61714;-83
2023/08/14 01:38:15;;;;;;;4.90;3.00;;;;;;;29.15;37.73;101303.58;103836;1285;61382;-83
2023/08/14 01:40:40;;;;;;;4.10;2.80;;;;;;;29.14;37.72;101303.67;103914;1284;61315;-83
2023/08/14 01:43:10;;;;;;;4.00;2.80;;;;;;;29.13;37.86;101306.41;103899;1285;61302;-83
2023/08/14 01:45:35;;;;;;;3.80;2.70;;;;;;;29.13;37.81;101309.30;103806;1285;63883;-82
2023/08/14 01:48:02;;;;;;;4.10;2.90;;;;;;;29.14;37.78;101312.30;103824;1286;61399;-83
2023/08/14 01:50:29;;;;;;;3.90;2.80;;;;;;;29.14;37.67;101313.60;103860;1287;61347;-83
2023/08/14 01:52:54;;;;;;;5.00;3.00;;;;;;;29.13;37.73;101311.14;103663;1284;61474;-82
2023/08/14 01:55:20;;;;;;;3.70;2.80;;;;;;;29.13;37.72;101314.41;103823;1287;61366;-82
2023/08/14 01:57:46;;;;;;;3.80;2.90;;;;;;;29.14;37.77;101310.91;103954;1287;61407;-83
2023/08/14 02:00:12;;;;;;;4.30;3.00;;;;;;;29.13;37.56;101310.05;103812;1284;61910;-83
2023/08/14 02:02:37;;;;;;;3.90;2.70;;;;;;;29.13;37.70;101306.81;104014;1285;61402;-83
2023/08/14 02:05:03;;;;;;;4.60;3.20;;;;;;;29.13;37.73;101306.30;103967;1284;62517;-83
2023/08/14 02:07:28;;;;;;;3.50;2.80;;;;;;;29.12;37.85;101301.81;103808;1290;61429;-82
2023/08/14 02:09:54;;;;;;;4.10;2.70;;;;;;;29.13;37.64;101302.70;103866;1289;61383;-83
2023/08/14 02:12:20;;;;;;;4.20;2.90;;;;;;;29.12;37.70;101301.27;103821;1285;61497;-83
2023/08/14 02:14:46;;;;;;;4.80;2.90;;;;;;;29.13;37.82;101301.98;103940;1284;61399;-83
2023/08/14 02:17:12;;;;;;;4.40;2.90;;;;;;;29.12;37.90;101303.82;103873;1285;61862;-83
2023/08/14 02:19:37;;;;;;;4.00;2.80;;;;;;;29.12;37.72;101304.70;103833;1285;61376;-83
2023/08/14 02:22:03;;;;;;;4.30;2.80;;;;;;;29.12;37.66;101302.94;103858;1285;61433;-83
2023/08/14 02:24:28;;;;;;;4.10;2.80;;;;;;;29.12;37.76;101301.30;103904;1285;61385;-83
2023/08/14 02:26:54;;;;;;;4.30;2.80;;;;;;;29.12;37.87;101300.96;103812;1285;61375;-83
2023/08/14 02:29:21;;;;;;;4.70;3.10;;;;;;;29.11;37.77;101303.70;103808;1289;61381;-83
2023/08/14 02:31:50;;;;;;;4.80;3.30;;;;;;;29.11;37.80;101306.42;103905;1285;62331;-82
2023/08/14 02:34:42;;;;;;;4.10;2.90;;;;;;;29.11;37.72;101303.70;103773;1284;61388;-83
2023/08/14 02:37:08;;;;;;;4.20;3.10;;;;;;;29.10;37.73;101304.89;103994;1284;61284;-83
2023/08/14 02:39:34;;;;;;;4.50;3.20;;;;;;;29.10;37.86;101304.72;103901;1287;62551;-82
2023/08/14 02:41:59;;;;;;;4.50;2.90;;;;;;;29.10;37.73;101304.89;103819;1285;61325;-83
2023/08/14 02:44:25;;;;;;;4.60;2.80;;;;;;;29.10;37.97;101306.89;103864;1285;62469;-83
2023/08/14 02:46:50;;;;;;;3.80;2.80;;;;;;;29.09;37.73;101305.49;103839;1289;61424;-83
2023/08/14 02:49:16;;;;;;;4.00;2.90;;;;;;;29.10;37.85;101307.84;103863;1290;61388;-83
2023/08/14 02:51:41;;;;;;;5.50;2.90;;;;;;;29.09;37.87;101306.59;103901;1285;61779;-82
2023/08/14 02:54:07;;;;;;;4.00;2.90;;;;;;;29.10;37.92;101306.76;103840;1285;61405;-83
2023/08/14 02:56:33;;;;;;;4.60;3.20;;;;;;;29.09;37.77;101305.52;103881;1284;61376;-82
2023/08/14 02:58:59;;;;;;;4.30;2.90;;;;;;;29.09;38.01;101302.95;104012;1285;61394;-83
2023/08/14 03:01:24;;;;;;;5.80;3.10;;;;;;;29.09;37.87;101305.02;103933;1285;61398;-83
2023/08/14 03:03:50;;;;;;;3.80;2.80;;;;;;;29.09;37.77;101303.70;103859;1285;61381;-83
2023/08/14 03:06:17;;;;;;;4.50;3.00;;;;;;;29.09;37.86;101302.60;103854;1288;61395;-83
2023/08/14 03:08:43;;;;;;;4.10;2.80;;;;;;;29.08;37.89;101301.09;103799;1285;61397;-83
2023/08/14 03:11:09;;;;;;;4.10;2.80;;;;;;;29.09;37.77;101297.80;103889;1284;61441;-83
2023/08/14 03:13:34;;;;;;;4.00;2.90;;;;;;;29.08;37.82;101295.29;103887;1290;61334;-83
2023/08/14 03:16:00;;;;;;;4.10;2.90;;;;;;;29.09;37.70;101295.80;104050;1284;61427;-83
2023/08/14 03:18:25;;;;;;;4.30;3.00;;;;;;;29.09;37.96;101298.52;103895;1285;61471;-83
2023/08/14 03:20:51;;;;;;;4.80;3.20;;;;;;;29.08;37.97;101299.09;103844;1284;61399;-83
2023/08/14 03:23:16;;;;;;;4.50;3.00;;;;;;;29.08;37.93;101303.64;103901;1285;61399;-83
2023/08/14 03:25:42;;;;;;;4.20;3.00;;;;;;;29.08;37.98;101302.04;103917;1284;61454;-83
2023/08/14 03:28:07;;;;;;;3.90;2.90;;;;;;;29.08;37.97;101306.77;103985;1284;61475;-83
2023/08/14 03:30:33;;;;;;;4.00;3.10;;;;;;;29.09;37.75;101308.85;103869;1285;61417;-83
2023/08/14 03:32:58;;;;;;;4.10;2.90;;;;;;;29.08;37.98;101308.42;103614;1284;61306;-83
2023/08/14 03:35:24;;;;;;;4.40;3.10;;;;;;;29.08;37.88;101309.65;103880;1288;61442;-83
2023/08/14 03:37:50;;;;;;;4.20;2.90;;;;;;;29.08;37.87;101309.99;103589;1284;62190;-83
2023/08/14 03:40:15;;;;;;;4.60;2.80;;;;;;;29.08;37.85;101310.54;103875;1286;61815;-83
2023/08/14 03:42:41;;;;;;;4.40;3.10;;;;;;;29.08;38.02;101310.40;104055;1284;61400;-83
2023/08/14 03:45:08;;;;;;;4.30;3.10;;;;;;;29.08;38.05;101309.64;103932;1286;61348;-83
2023/08/14 03:47:34;;;;;;;4.80;2.90;;;;;;;29.08;37.79;101311.45;103837;1286;61496;-82
2023/08/14 03:49:59;;;;;;;4.10;3.20;;;;;;;29.08;37.94;101311.45;103817;1284;61408;-83
2023/08/14 03:52:25;;;;;;;4.00;2.90;;;;;;;29.08;37.83;101311.26;103721;1285;61361;-82
2023/08/14 03:54:50;;;;;;;4.20;2.70;;;;;;;29.08;37.97;101311.08;104035;1287;61407;-83
2023/08/14 03:57:16;;;;;;;4.10;2.70;;;;;;;29.08;37.83;101310.16;104060;1284;61387;-82
2023/08/14 03:59:41;;;;;;;4.90;3.00;;;;;;;29.08;38.08;101308.94;103634;1284;61421;-82
2023/08/14 04:02:07;;;;;;;4.40;3.00;;;;;;;29.09;38.06;101310.48;103876;1286;61391;-83
2023/08/14 04:04:32;;;;;;;5.30;3.20;;;;;;;29.08;37.92;101314.31;103906;1285;61397;-83
2023/08/14 04:06:58;;;;;;;4.10;3.10;;;;;;;29.09;37.87;101318.46;103832;1284;61710;-83
2023/08/14 04:09:23;;;;;;;3.90;2.80;;;;;;;29.08;37.95;101317.95;103932;1284;61424;-83
2023/08/14 04:11:49;;;;;;;3.90;3.00;;;;;;;29.08;38.03;101318.52;103929;1286;61371;-83
2023/08/14 04:14:15;;;;;;;5.00;2.90;;;;;;;29.09;38.09;101319.92;103934;1285;61382;-83
2023/08/14 04:16:43;;;;;;;3.90;2.70;;;;;;;29.09;38.01;101325.53;103928;1289;61881;-83
2023/08/14 04:19:17;;;;;;;3.90;2.80;;;;;;;29.09;37.75;101325.36;104064;1284;61398;-83
2023/08/14 04:21:42;;;;;;;4.40;3.10;;;;;;;29.08;37.80;101328.45;103923;1289;61284;-82
2023/08/14 04:24:08;;;;;;;4.40;2.80;;;;;;;29.08;37.89;101334.77;103907;1287;63648;-83
2023/08/14 04:26:34;;;;;;;4.50;2.90;;;;;;;29.08;37.91;101343.84;103954;1285;61320;-83
2023/08/14 04:29:00;;;;;;;4.70;3.10;;;;;;;29.09;37.95;101349.79;103898;1284;61488;-83
2023/08/14 04:31:25;;;;;;;4.30;2.80;;;;;;;29.09;37.90;101353.16;104161;1284;61321;-83
2023/08/14 04:33:51;;;;;;;4.00;3.00;;;;;;;29.09;37.85;101357.73;103903;1284;61293;-83
2023/08/14 04:36:18;;;;;;;4.20;2.80;;;;;;;29.09;37.99;101361.35;103886;1285;62469;-83
2023/08/14 04:38:43;;;;;;;5.30;2.90;;;;;;;29.10;38.04;101362.20;104011;1284;61861;-83
2023/08/14 04:41:09;;;;;;;4.10;3.00;;;;;;;29.09;37.96;101358.96;103653;1284;62524;-83
2023/08/14 04:43:35;;;;;;;4.30;2.80;;;;;;;29.09;37.91;101369.86;103852;1284;61420;-82
2023/08/14 04:46:11;;;;;;;5.40;2.90;;;;;;;29.09;37.92;101377.63;103891;1285;61405;-82
2023/08/14 04:48:37;;;;;;;5.10;3.10;;;;;;;29.09;37.93;101380.79;103870;1284;65717;-83
2023/08/14 04:51:06;;;;;;;4.90;3.20;;;;;;;29.09;37.96;101383.60;103884;1284;61722;-83
2023/08/14 04:53:31;;;;;;;4.30;2.90;;;;;;;29.09;37.81;101391.77;103901;1284;62455;-82
2023/08/14 04:55:57;;;;;;;3.50;2.60;;;;;;;29.09;37.78;101390.50;103807;1290;61394;-83
2023/08/14 04:58:24;;;;;;;4.70;3.00;;;;;;;29.10;37.90;101393.56;103920;1284;61399;-83
2023/08/14 05:00:49;;;;;;;4.30;2.90;;;;;;;29.10;37.83;101401.70;103892;1285;61384;-83
2023/08/14 05:03:15;;;;;;;5.40;3.00;;;;;;;29.10;37.78;101402.38;103943;1285;61414;-83
2023/08/14 05:05:40;;;;;;;4.80;3.00;;;;;;;29.10;37.83;101405.64;103864;1285;61347;-83
2023/08/14 05:08:06;;;;;;;4.40;3.20;;;;;;;29.11;37.82;101404.89;103649;1285;63794;-83
2023/08/14 05:10:34;;;;;;;5.60;3.00;;;;;;;29.11;37.84;101409.20;103794;1284;61357;-83
2023/08/14 05:13:00;;;;;;;4.90;3.10;;;;;;;29.12;37.74;101407.86;103788;1284;61585;-83
2023/08/14 05:15:26;;;;;;;4.00;2.70;;;;;;;29.12;37.90;101411.09;103906;1284;61376;-83
2023/08/14 05:17:51;;;;;;;4.60;2.90;;;;;;;29.13;37.82;101415.73;103871;1284;61389;-82
2023/08/14 05:20:17;;;;;;;3.70;2.70;;;;;;;29.14;37.87;101414.36;103991;1284;61922;-82
2023/08/14 05:22:43;;;;;;;3.70;2.70;;;;;;;29.14;38.12;101412.04;103834;1285;63594;-82
2023/08/14 05:25:10;;;;;;;4.30;3.00;;;;;;;29.15;38.21;101414.33;103821;1285;61391;-82
2023/08/14 05:27:39;;;;;;;5.10;2.90;;;;;;;29.15;38.31;101415.52;103902;1285;61324;-83
2023/08/14 05:30:06;;;;;;;5.00;2.80;;;;;;;29.15;38.53;101417.69;103862;1285;63840;-83
2023/08/14 05:32:31;;;;;;;4.00;2.80;;;;;;;29.16;38.36;101417.78;103733;1285;61325;-82
2023/08/14 05:34:57;;;;;;;4.50;3.00;;;;;;;29.18;38.57;101418.20;103957;1288;61396;-83
2023/08/14 05:37:23;;;;;;;3.70;2.80;;;;;;;29.18;38.49;101420.87;103834;1284;61397;-83
2023/08/14 05:39:48;;;;;;;4.70;2.80;;;;;;;29.19;38.45;101420.77;103733;1285;61756;-83
2023/08/14 05:42:15;;;;;;;4.10;2.90;;;;;;;29.19;38.63;101419.11;103953;1290;61323;-82
2023/08/14 05:44:40;;;;;;;4.90;3.20;;;;;;;29.20;38.58;101418.71;104010;1285;61373;-83
2023/08/14 05:47:06;;;;;;;4.20;3.00;;;;;;;29.21;38.62;101415.16;103945;1285;61970;-83
2023/08/14 05:49:32;;;;;;;4.00;2.60;;;;;;;29.22;38.57;101417.61;103965;1285;61430;-83
2023/08/14 05:51:57;;;;;;;3.60;2.60;;;;;;;29.22;38.61;101416.47;104035;1285;61293;-83
2023/08/14 05:54:23;;;;;;;4.80;3.10;;;;;;;29.23;38.72;101415.86;103864;1287;61835;-83
2023/08/14 05:56:50;;;;;;;3.80;2.80;;;;;;;29.23;38.57;101415.09;103899;1284;61344;-83
2023/08/14 05:59:17;;;;;;;4.90;3.10;;;;;;;29.24;38.79;101417.58;103844;1285;61331;-83
2023/08/14 06:01:43;;;;;;;4.20;2.80;;;;;;;29.24;38.69;101419.35;103905;1290;61331;-82
2023/08/14 06:04:08;;;;;;;4.40;2.90;;;;;;;29.25;38.60;101418.20;103884;1284;61340;-82
2023/08/14 06:06:34;;;;;;;3.90;2.90;;;;;;;29.25;38.59;101419.25;103932;1284;61381;-83
2023/08/14 06:09:01;;;;;;;3.80;2.80;;;;;;;29.26;38.52;101420.45;103984;1284;61368;-83
2023/08/14 06:11:27;;;;;;;4.30;2.90;;;;;;;29.27;38.56;101420.23;103608;1284;61389;-83
2023/08/14 06:13:52;;;;;;;4.90;3.30;;;;;;;29.27;38.83;101418.20;103816;1289;63610;-83
2023/08/14 06:16:18;;;;;;;5.40;3.00;;;;;;;29.28;38.52;101419.55;103903;1285;61499;-83
2023/08/14 06:18:43;;;;;;;4.80;3.10;;;;;;;29.29;38.73;101417.87;103930;1288;62046;-83
2023/08/14 06:21:09;;;;;;;4.40;3.20;;;;;;;29.29;38.63;101419.16;103818;1284;61500;-82
2023/08/14 06:23:34;;;;;;;3.90;2.70;;;;;;;29.29;38.60;101425.42;103876;1285;61457;-82
2023/08/14 06:26:00;;;;;;;4.60;2.70;;;;;;;29.30;38.65;101425.00;103785;1286;63903;-82
2023/08/14 06:28:25;;;;;;;4.10;2.90;;;;;;;29.30;38.70;101423.34;103932;1284;62544;-82
2023/08/14 06:30:51;;;;;;;4.00;2.80;;;;;;;29.31;38.75;101421.48;103788;1285;61324;-82
2023/08/14 06:33:16;;;;;;;3.80;2.60;;;;;;;29.32;38.86;101427.56;103726;1285;62866;-82
2023/08/14 06:35:42;;;;;;;4.00;2.70;;;;;;;29.32;38.71;101430.45;103888;1284;61771;-82
2023/08/14 06:38:08;;;;;;;3.80;3.00;;;;;;;29.33;38.73;101428.90;103938;1285;63766;-82
2023/08/14 06:40:33;;;;;;;3.70;2.70;;;;;;;29.33;38.67;101433.21;103694;1290;326391;-83
2023/08/14 06:42:59;;;;;;;4.30;2.90;;;;;;;29.34;38.80;101434.79;103860;1285;61411;-82
2023/08/14 06:45:25;;;;;;;5.30;3.20;;;;;;;29.34;38.63;101436.56;104041;1289;61371;-82
2023/08/14 06:47:50;;;;;;;4.20;3.00;;;;;;;29.34;38.77;101437.60;103862;1284;62296;-82
2023/08/14 06:50:16;;;;;;;3.90;2.90;;;;;;;29.35;38.71;101440.80;103954;1285;62014;-83
2023/08/14 06:52:42;;;;;;;4.60;3.20;;;;;;;29.36;38.74;101440.77;103872;1284;61289;-82
2023/08/14 06:55:07;;;;;;;5.70;2.90;;;;;;;29.36;38.78;101445.95;103977;1284;61489;-82
2023/08/14 06:57:33;;;;;;;4.40;2.50;;;;;;;29.37;38.66;101447.77;103971;1285;61313;-82
2023/08/14 07:00:05;;;;;;;4.30;2.90;;;;;;;29.37;38.61;101447.56;103892;1284;61452;-82
2023/08/14 07:02:31;;;;;;;4.70;2.80;;;;;;;29.37;38.67;101446.98;103779;1285;65878;-82
2023/08/14 07:04:57;;;;;;;3.90;2.90;;;;;;;29.38;38.81;101448.72;103925;1284;61389;-82
2023/08/14 07:07:22;;;;;;;4.00;2.90;;;;;;;29.38;38.62;101446.12;103886;1284;61384;-82
2023/08/14 07:09:48;;;;;;;4.40;2.90;;;;;;;29.39;38.62;101448.80;103941;1284;61386;-82
2023/08/14 07:12:13;;;;;;;3.90;2.80;;;;;;;29.39;38.62;101448.03;104031;1285;61294;-81
2023/08/14 07:14:39;;;;;;;3.60;2.70;;;;;;;29.39;38.75;101447.66;103934;1285;67324;-82
2023/08/14 07:17:04;;;;;;;4.00;2.90;;;;;;;29.40;38.64;101447.96;103979;1284;61334;-82
2023/08/14 07:19:31;;;;;;;4.10;2.80;;;;;;;29.40;38.71;101443.96;103830;1285;61399;-82
2023/08/14 07:21:57;;;;;;;3.80;2.90;;;;;;;29.40;38.65;101441.23;103916;1284;61381;-82
2023/08/14 07:24:24;;;;;;;4.00;3.00;;;;;;;29.40;38.79;101437.77;103830;1289;61433;-82
2023/08/14 07:26:50;;;;;;;4.20;3.10;;;;;;;29.40;38.70;101440.50;103931;1284;61332;-82
2023/08/14 07:29:16;;;;;;;3.90;2.90;;;;;;;29.40;38.67;101439.92;104019;1284;61367;-82
2023/08/14 07:31:42;;;;;;;4.10;3.00;;;;;;;29.41;38.94;101438.45;103993;1284;61404;-82
2023/08/14 07:34:07;;;;;;;4.00;2.90;;;;;;;29.41;38.85;101433.67;103945;1285;61395;-82
2023/08/14 07:36:33;;;;;;;4.80;2.90;;;;;;;29.42;38.70;101435.80;103893;1284;65858;-82
2023/08/14 07:38:59;;;;;;;4.20;2.90;;;;;;;29.42;38.65;101437.77;103967;1284;62636;-82
2023/08/14 07:41:24;;;;;;;4.00;3.00;;;;;;;29.42;38.73;101427.07;103890;1284;61356;-82
2023/08/14 07:43:50;;;;;;;4.80;3.10;;;;;;;29.41;38.78;101426.57;104076;1284;61293;-82
2023/08/14 07:46:17;;;;;;;4.30;2.90;;;;;;;29.42;38.78;101426.73;103966;1286;61384;-82
2023/08/14 07:48:42;;;;;;;4.20;2.80;;;;;;;29.42;38.76;101425.77;103868;1285;65886;-82
2023/08/14 07:51:08;;;;;;;4.10;2.70;;;;;;;29.43;38.83;101424.43;103917;1284;61280;-82
2023/08/14 07:53:33;;;;;;;3.60;2.70;;;;;;;29.43;38.87;101423.52;103942;1284;61401;-82
2023/08/14 07:55:59;;;;;;;3.80;3.00;;;;;;;29.43;38.83;101424.05;103854;1285;61366;-82
2023/08/14 07:58:25;;;;;;;4.30;2.90;;;;;;;29.43;38.66;101423.89;104118;1284;61394;-82
2023/08/14 08:00:50;;;;;;;3.70;2.80;;;;;;;29.44;38.77;101422.95;104047;1286;65687;-82
2023/08/14 08:03:16;;;;;;;4.10;2.80;;;;;;;29.44;38.90;101423.27;103952;1285;62111;-82
2023/08/14 08:05:42;;;;;;;4.10;3.00;;;;;;;29.44;38.74;101422.73;103959;1284;61391;-82
2023/08/14 08:08:07;;;;;;;4.30;3.10;;;;;;;29.44;38.73;101420.76;103878;1284;61290;-82
2023/08/14 08:10:33;;;;;;;3.70;2.80;;;;;;;29.44;38.80;101421.99;104017;1284;61309;-83
2023/08/14 08:12:59;;;;;;;4.60;2.90;;;;;;;29.44;38.84;101418.02;103961;1284;61293;-82
2023/08/14 08:15:25;;;;;;;3.80;3.00;;;;;;;29.44;38.85;101415.83;103984;1284;61235;-82
2023/08/14 08:17:50;;;;;;;4.20;3.10;;;;;;;29.44;38.76;101415.66;104045;1284;61351;-82
2023/08/14 08:20:16;;;;;;;3.90;2.70;;;;;;;29.44;38.82;101416.55;103816;1290;61476;-82
2023/08/14 08:22:42;;;;;;;4.20;3.00;;;;;;;29.43;38.67;101412.25;104030;1288;61498;-81
2023/08/14 08:25:07;;;;;;;4.50;2.90;;;;;;;29.45;38.62;101409.81;103838;1284;61373;-82
2023/08/14 08:27:35;;;;;;;5.90;3.10;;;;;;;29.44;38.66;101411.27;103999;1284;61369;-82
2023/08/14 08:30:00;;;;;;;4.10;2.90;;;;;;;29.44;38.54;101410.02;103845;1284;61485;-82
2023/08/14 08:32:26;;;;;;;4.10;2.80;;;;;;;29.44;38.63;101414.74;103948;1285;61376;-82
2023/08/14 08:34:51;;;;;;;3.90;2.90;;;;;;;29.45;38.73;101413.63;103991;1284;61776;-82
2023/08/14 08:37:21;;;;;;;3.80;2.70;;;;;;;29.44;38.61;101415.61;104011;1284;61179;-82
2023/08/14 08:39:46;;;;;;;4.80;3.30;;;;;;;29.44;38.83;101411.82;103882;1285;61578;-82
2023/08/14 08:42:12;;;;;;;4.30;2.90;;;;;;;29.45;38.64;101405.44;103934;1284;62086;-82
2023/08/14 08:44:39;;;;;;;3.90;2.90;;;;;;;29.45;38.61;101408.52;103986;1290;61894;-82
2023/08/14 08:47:08;;;;;;;4.30;3.10;;;;;;;29.45;38.48;101411.45;104270;1284;61371;-82
2023/08/14 08:49:34;;;;;;;4.20;2.90;;;;;;;29.45;38.21;101407.42;104240;1284;61343;-82
2023/08/14 08:52:00;;;;;;;4.30;3.10;;;;;;;29.45;38.30;101409.75;104037;1290;61373;-82
2023/08/14 08:54:26;;;;;;;4.40;2.90;;;;;;;29.46;38.09;101404.96;104006;1289;61807;-82
2023/08/14 08:56:51;;;;;;;5.20;3.10;;;;;;;29.46;38.14;101406.25;103964;1284;62542;-82
2023/08/14 08:59:17;;;;;;;4.10;3.10;;;;;;;29.46;38.12;101399.33;103955;1285;61304;-82
2023/08/14 09:01:43;;;;;;;3.80;2.90;;;;;;;29.46;38.09;101400.56;103750;1285;61393;-82
2023/08/14 09:04:09;;;;;;;4.80;3.00;;;;;;;29.46;38.10;101395.33;103966;1284;63675;-82
2023/08/14 09:06:35;;;;;;;3.60;2.70;;;;;;;29.46;38.00;101392.77;103744;1292;61318;-82
2023/08/14 09:09:00;;;;;;;3.80;2.80;;;;;;;29.47;37.78;101387.08;103905;1284;61390;-82
2023/08/14 09:11:26;;;;;;;3.60;2.70;;;;;;;29.47;37.92;101396.71;103777;1284;69337;-82
2023/08/14 09:13:52;;;;;;;4.30;3.30;;;;;;;29.47;37.95;101396.73;103946;1284;61438;-82
2023/08/14 09:16:18;;;;;;;4.10;2.90;;;;;;;29.47;37.79;101392.36;103785;1285;61657;-82
2023/08/14 09:18:44;;;;;;;5.00;3.50;;;;;;;29.47;37.76;101390.36;103584;1285;65839;-82
2023/08/14 09:21:12;;;;;;;4.40;2.90;;;;;;;29.47;37.99;101392.88;103900;1285;61351;-82
2023/08/14 09:23:38;;;;;;;5.00;2.90;;;;;;;29.47;37.86;101391.27;104025;1284;61427;-82
2023/08/14 09:26:04;;;;;;;4.70;3.00;;;;;;;29.46;37.88;101384.79;104120;1284;61407;-82
2023/08/14 09:28:30;;;;;;;3.80;2.80;;;;;;;29.47;37.97;101388.15;104086;1285;61949;-82
2023/08/14 09:31:16;;;;;;;4.30;2.90;;;;;;;29.48;37.94;101381.60;103968;1290;61370;-82
2023/08/14 09:33:43;;;;;;;4.40;3.00;;;;;;;29.47;37.93;101377.14;103989;1284;61365;-82
2023/08/14 09:36:09;;;;;;;4.20;3.20;;;;;;;29.47;37.87;101378.40;103847;1285;64910;-82
2023/08/14 09:38:37;;;;;;;4.10;3.10;;;;;;;29.48;37.72;101376.70;103944;1289;61289;-82
2023/08/14 09:41:03;;;;;;;4.10;3.00;;;;;;;29.47;37.88;101372.38;104087;1285;61357;-83
2023/08/14 09:43:31;;;;;;;4.30;3.00;;;;;;;29.47;37.59;101365.31;103561;1284;61494;-82
2023/08/14 09:45:57;;;;;;;4.50;2.90;;;;;;;29.47;37.85;101370.38;103960;1285;64720;-82
2023/08/14 09:48:23;;;;;;;4.00;2.80;;;;;;;29.48;37.88;101363.64;103889;1289;61283;-82
2023/08/14 09:50:52;;;;;;;5.00;2.90;;;;;;;29.48;37.86;101358.92;104001;1284;61317;-82
2023/08/14 09:53:18;;;;;;;4.10;2.90;;;;;;;29.48;37.71;101364.16;103843;1285;61267;-82
2023/08/14 09:55:44;;;;;;;3.70;2.80;;;;;;;29.48;37.74;101358.58;104023;1284;61298;-82
2023/08/14 09:58:09;;;;;;;4.50;3.00;;;;;;;29.47;37.71;101354.98;103925;1284;61482;-82
2023/08/14 10:00:37;;;;;;;4.80;2.90;;;;;;;29.47;37.45;101355.55;103958;1285;61264;-83
2023/08/14 10:03:03;;;;;;;4.20;3.00;;;;;;;29.48;37.65;101354.23;103811;1290;61361;-82
2023/08/14 10:05:30;;;;;;;4.20;2.90;;;;;;;29.47;37.51;101351.16;104011;1284;61381;-82
2023/08/14 10:07:56;;;;;;;5.10;3.10;;;;;;;29.47;37.54;101345.94;103745;1284;61575;-83
2023/08/14 10:10:22;;;;;;;4.10;2.70;;;;;;;29.47;37.73;101344.16;104036;1289;61340;-82
2023/08/14 10:12:56;;;;;;;3.70;2.90;;;;;;;29.47;37.68;101339.27;104076;1285;62084;-82
2023/08/14 10:15:26;;;;;;;4.70;2.90;;;;;;;29.46;37.71;101327.67;103867;1284;63987;-83
2023/08/14 10:17:57;;;;;;;4.70;3.20;;;;;;;29.47;37.58;101330.19;103934;1285;65875;-82
2023/08/14 10:20:22;;;;;;;3.90;2.90;;;;;;;29.47;37.67;101324.91;103971;1285;61294;-83
2023/08/14 10:22:49;;;;;;;3.80;2.80;;;;;;;29.47;37.62;101322.73;103830;1285;61930;-82
2023/08/14 10:25:14;;;;;;;5.10;3.00;;;;;;;29.46;37.64;101318.28;103966;1284;62438;-82
2023/08/14 10:27:40;;;;;;;4.20;2.80;;;;;;;29.47;37.49;101314.98;104070;1290;61405;-82
2023/08/14 10:30:07;;;;;;;4.90;2.90;;;;;;;29.46;37.67;101317.20;104016;1284;61459;-82
2023/08/14 10:32:32;;;;;;;4.10;3.00;;;;;;;29.47;37.58;101314.05;103997;1285;61303;-82
2023/08/14 10:34:58;;;;;;;4.50;3.10;;;;;;;29.46;37.45;101312.46;103819;1290;61404;-82
2023/08/14 10:37:28;;;;;;;3.90;2.80;;;;;;;29.46;37.64;101319.71;104020;1285;61452;-83
2023/08/14 10:40:22;;;;;;;4.40;3.10;;;;;;;29.47;37.50;101313.86;103998;1284;65725;-82
2023/08/14 10:42:56;;;;;;;3.80;2.90;;;;;;;29.45;37.61;101307.09;103945;1284;61374;-82
2023/08/14 10:45:22;;;;;;;4.70;3.10;;;;;;;29.46;37.58;101308.90;103990;1285;61378;-82
2023/08/14 10:47:52;;;;;;;4.80;3.00;;;;;;;29.46;37.52;101303.08;103869;1284;64310;-82
2023/08/14 10:50:19;;;;;;;3.70;2.70;;;;;;;29.45;37.50;101300.05;103861;1285;65870;-82
2023/08/14 10:52:48;;;;;;;4.30;2.90;;;;;;;29.45;37.49;101295.88;103923;1286;61379;-82
2023/08/14 10:55:16;;;;;;;3.80;2.60;;;;;;;29.46;37.47;101298.02;104026;1285;61269;-82
2023/08/14 10:57:42;;;;;;;4.70;3.20;;;;;;;29.46;37.41;101300.23;103880;1285;62742;-82
2023/08/14 11:00:22;;;;;;;3.80;3.10;;;;;;;29.45;37.55;101296.96;103941;1285;62484;-82
2023/08/14 11:03:06;;;;;;;5.30;3.20;;;;;;;29.45;37.68;101302.23;103999;1284;61291;-82
2023/08/14 11:05:36;;;;;;;4.00;3.30;;;;;;;29.45;37.43;101296.10;103991;1285;61290;-82
2023/08/14 11:08:02;;;;;;;3.80;2.80;;;;;;;29.45;37.33;101299.34;103986;1284;63868;-82
2023/08/14 11:10:28;;;;;;;4.50;3.00;;;;;;;29.45;37.45;101296.23;103848;1286;62546;-82
2023/08/14 11:12:55;;;;;;;3.90;2.90;;;;;;;29.45;37.43;101293.00;103857;1284;61326;-82
2023/08/14 11:15:21;;;;;;;4.10;2.90;;;;;;;29.45;37.50;101293.52;103973;1285;61257;-82